sensor_id;sensor_type;location;lat;lon;timestamp;temperature;humidity
37702;DHT22;23548;51.196;6.838;2023-02-28T00:01:19;0.70;99.90
37702;DHT22;23548;51.196;6.838;2023-02-28T00:03:45;0.60;99.90
37702;DHT22;23548;51.196;6.838;2023-02-28T00:06:11;0.60;99.90
37702;DHT22;23548;51.196;6.838;2023-02-28T00:08:38;0.50;99.90
37702;DHT22;23548;51.196;6.838;2023-02-28T00:11:06;0.60;99.90
37702;DHT22;23548;51.196;6.838;2023-02-28T00:13:35;0.60;99.90
37702;DHT22;23548;51.196;6.838;2023-02-28T00:16:05;0.60;99.90
37702;DHT22;23548;51.196;6.838;2023-02-28T00:18:32;0.50;99.90
37702;DHT22;23548;51.196;6.838;2023-02-28T00:20:58;0.50;99.90
37702;DHT22;23548;51.196;6.838;2023-02-28T00:23:25;0.40;99.90
37702;DHT22;23548;51.196;6.838;2023-02-28T00:25:51;0.40;99.90
37702;DHT22;23548;51.196;6.838;2023-02-28T00:28:17;0.40;99.90
37702;DHT22;23548;51.196;6.838;2023-02-28T00:30:44;0.40;99.90
37702;DHT22;23548;51.196;6.838;2023-02-28T00:33:09;0.40;99.90
37702;DHT22;23548;51.196;6.838;2023-02-28T00:35:35;0.40;99.90
37702;DHT22;23548;51.196;6.838;2023-02-28T00:38:01;0.50;99.90
37702;DHT22;23548;51.196;6.838;2023-02-28T00:40:28;0.50;99.90
37702;DHT22;23548;51.196;6.838;2023-02-28T00:42:53;0.60;99.90
37702;DHT22;23548;51.196;6.838;2023-02-28T00:45:19;0.60;99.90
37702;DHT22;23548;51.196;6.838;2023-02-28T00:47:45;0.60;99.90
37702;DHT22;23548;51.196;6.838;2023-02-28T00:50:12;0.60;99.90
37702;DHT22;23548;51.196;6.838;2023-02-28T00:52:37;0.50;99.90
37702;DHT22;23548;51.196;6.838;2023-02-28T00:55:04;0.50;99.90
37702;DHT22;23548;51.196;6.838;2023-02-28T00:57:30;0.50;99.90
37702;DHT22;23548;51.196;6.838;2023-02-28T00:59:56;0.60;99.90
37702;DHT22;23548;51.196;6.838;2023-02-28T01:02:22;0.70;99.90
37702;DHT22;23548;51.196;6.838;2023-02-28T01:04:48;0.70;99.90
37702;DHT22;23548;51.196;6.838;2023-02-28T01:07:14;0.60;99.90
37702;DHT22;23548;51.196;6.838;2023-02-28T01:09:41;0.50;99.90
37702;DHT22;23548;51.196;6.838;2023-02-28T01:12:07;0.40;99.90
37702;DHT22;23548;51.196;6.838;2023-02-28T01:14:34;0.40;99.90
37702;DHT22;23548;51.196;6.838;2023-02-28T01:17:00;0.30;99.90
37702;DHT22;23548;51.196;6.838;2023-02-28T01:19:26;0.30;99.90
37702;DHT22;23548;51.196;6.838;2023-02-28T01:21:52;0.30;99.90
37702;DHT22;23548;51.196;6.838;2023-02-28T01:24:18;0.30;99.90
37702;DHT22;23548;51.196;6.838;2023-02-28T01:26:44;0.40;99.90
37702;DHT22;23548;51.196;6.838;2023-02-28T01:29:10;0.40;99.90
37702;DHT22;23548;51.196;6.838;2023-02-28T01:31:36;0.30;99.90
37702;DHT22;23548;51.196;6.838;2023-02-28T01:34:02;0.40;99.90
37702;DHT22;23548;51.196;6.838;2023-02-28T01:36:28;0.20;99.90
37702;DHT22;23548;51.196;6.838;2023-02-28T01:38:54;0.10;99.90
37702;DHT22;23548;51.196;6.838;2023-02-28T01:41:23;0.10;99.90
37702;DHT22;23548;51.196;6.838;2023-02-28T01:46:15;0.00;99.90
37702;DHT22;23548;51.196;6.838;2023-02-28T01:51:54;0.10;99.90
37702;DHT22;23548;51.196;6.838;2023-02-28T01:54:31;0.20;99.90
37702;DHT22;23548;51.196;6.838;2023-02-28T01:57:06;0.20;99.90
37702;DHT22;23548;51.196;6.838;2023-02-28T02:00:03;0.20;99.90
37702;DHT22;23548;51.196;6.838;2023-02-28T02:02:31;0.00;99.90
37702;DHT22;23548;51.196;6.838;2023-02-28T02:05:06;0.00;99.90
37702;DHT22;23548;51.196;6.838;2023-02-28T02:07:37;-0.10;99.90
37702;DHT22;23548;51.196;6.838;2023-02-28T02:10:15;-0.20;99.90
37702;DHT22;23548;51.196;6.838;2023-02-28T02:15:27;-0.40;99.90
37702;DHT22;23548;51.196;6.838;2023-02-28T02:17:57;-0.40;99.90
37702;DHT22;23548;51.196;6.838;2023-02-28T02:36:53;-0.30;99.90
37702;DHT22;23548;51.196;6.838;2023-02-28T02:42:51;-0.10;99.90
37702;DHT22;23548;51.196;6.838;2023-02-28T02:45:25;-0.10;99.90
37702;DHT22;23548;51.196;6.838;2023-02-28T02:47:53;-0.10;99.90
37702;DHT22;23548;51.196;6.838;2023-02-28T02:50:26;-0.10;99.90
37702;DHT22;23548;51.196;6.838;2023-02-28T02:52:56;-0.20;99.90
37702;DHT22;23548;51.196;6.838;2023-02-28T02:55:23;-0.10;99.90
37702;DHT22;23548;51.196;6.838;2023-02-28T02:57:53;-0.20;99.90
37702;DHT22;23548;51.196;6.838;2023-02-28T03:00:26;-0.20;99.90
37702;DHT22;23548;51.196;6.838;2023-02-28T03:02:54;-0.20;99.90
37702;DHT22;23548;51.196;6.838;2023-02-28T03:05:25;-0.30;99.90
37702;DHT22;23548;51.196;6.838;2023-02-28T03:07:52;-0.30;99.90
37702;DHT22;23548;51.196;6.838;2023-02-28T03:13:04;-0.30;99.90
37702;DHT22;23548;51.196;6.838;2023-02-28T03:35:28;-0.20;99.90
37702;DHT22;23548;51.196;6.838;2023-02-28T03:38:05;-0.30;99.90
37702;DHT22;23548;51.196;6.838;2023-02-28T03:40:35;-0.30;99.90
37702;DHT22;23548;51.196;6.838;2023-02-28T03:43:07;-0.40;99.90
37702;DHT22;23548;51.196;6.838;2023-02-28T03:45:37;-0.40;99.90
37702;DHT22;23548;51.196;6.838;2023-02-28T03:48:31;-0.40;99.90
37702;DHT22;23548;51.196;6.838;2023-02-28T03:50:59;-0.40;99.90
37702;DHT22;23548;51.196;6.838;2023-02-28T03:53:31;-0.50;99.90
37702;DHT22;23548;51.196;6.838;2023-02-28T03:56:08;-0.60;99.90
37702;DHT22;23548;51.196;6.838;2023-02-28T03:58:54;-0.60;99.90
37702;DHT22;23548;51.196;6.838;2023-02-28T04:01:45;-0.50;99.90
37702;DHT22;23548;51.196;6.838;2023-02-28T04:04:13;-0.50;99.90
37702;DHT22;23548;51.196;6.838;2023-02-28T04:06:39;-0.50;99.90
37702;DHT22;23548;51.196;6.838;2023-02-28T04:09:08;-0.50;99.90
37702;DHT22;23548;51.196;6.838;2023-02-28T04:11:39;-0.50;99.90
37702;DHT22;23548;51.196;6.838;2023-02-28T04:14:06;-0.50;99.90
37702;DHT22;23548;51.196;6.838;2023-02-28T04:16:34;-0.60;99.90
37702;DHT22;23548;51.196;6.838;2023-02-28T04:19:02;-0.60;99.90
37702;DHT22;23548;51.196;6.838;2023-02-28T04:24:02;-0.70;99.90
37702;DHT22;23548;51.196;6.838;2023-02-28T04:26:36;-0.70;99.90
37702;DHT22;23548;51.196;6.838;2023-02-28T04:31:37;-0.70;99.90
37702;DHT22;23548;51.196;6.838;2023-02-28T04:34:03;-0.80;99.90
37702;DHT22;23548;51.196;6.838;2023-02-28T04:36:29;-0.80;99.90
37702;DHT22;23548;51.196;6.838;2023-02-28T04:38:55;-0.80;99.90
37702;DHT22;23548;51.196;6.838;2023-02-28T04:41:22;-0.90;99.90
37702;DHT22;23548;51.196;6.838;2023-02-28T04:43:48;-0.80;99.90
37702;DHT22;23548;51.196;6.838;2023-02-28T04:46:14;-0.70;99.90
37702;DHT22;23548;51.196;6.838;2023-02-28T04:48:40;-0.80;99.90
37702;DHT22;23548;51.196;6.838;2023-02-28T04:51:11;-0.70;99.90
37702;DHT22;23548;51.196;6.838;2023-02-28T04:53:38;-0.70;99.90
37702;DHT22;23548;51.196;6.838;2023-02-28T04:56:06;-0.70;99.90
37702;DHT22;23548;51.196;6.838;2023-02-28T04:58:32;-0.70;99.90
37702;DHT22;23548;51.196;6.838;2023-02-28T05:01:03;-0.80;99.90
37702;DHT22;23548;51.196;6.838;2023-02-28T05:03:29;-0.80;99.90
37702;DHT22;23548;51.196;6.838;2023-02-28T05:05:55;-0.80;99.90
37702;DHT22;23548;51.196;6.838;2023-02-28T05:08:20;-0.80;99.90
37702;DHT22;23548;51.196;6.838;2023-02-28T05:10:46;-0.80;99.90
37702;DHT22;23548;51.196;6.838;2023-02-28T05:13:12;-0.70;99.90
37702;DHT22;23548;51.196;6.838;2023-02-28T05:15:39;-0.70;99.90
37702;DHT22;23548;51.196;6.838;2023-02-28T05:18:05;-0.70;99.90
37702;DHT22;23548;51.196;6.838;2023-02-28T05:20:30;-0.70;99.90
37702;DHT22;23548;51.196;6.838;2023-02-28T05:22:57;-0.60;99.90
37702;DHT22;23548;51.196;6.838;2023-02-28T05:25:24;-0.70;99.90
37702;DHT22;23548;51.196;6.838;2023-02-28T05:27:49;-0.70;99.90
37702;DHT22;23548;51.196;6.838;2023-02-28T05:30:16;-0.60;99.90
37702;DHT22;23548;51.196;6.838;2023-02-28T05:32:42;-0.70;99.90
37702;DHT22;23548;51.196;6.838;2023-02-28T05:35:12;-0.70;99.90
37702;DHT22;23548;51.196;6.838;2023-02-28T05:37:38;-0.70;99.90
37702;DHT22;23548;51.196;6.838;2023-02-28T05:40:06;-0.70;99.90
37702;DHT22;23548;51.196;6.838;2023-02-28T05:42:32;-0.70;99.90
37702;DHT22;23548;51.196;6.838;2023-02-28T05:44:58;-0.80;99.90
37702;DHT22;23548;51.196;6.838;2023-02-28T05:47:25;-0.80;99.90
37702;DHT22;23548;51.196;6.838;2023-02-28T05:49:50;-0.80;99.90
37702;DHT22;23548;51.196;6.838;2023-02-28T05:52:16;-0.80;99.90
37702;DHT22;23548;51.196;6.838;2023-02-28T05:54:42;-0.70;99.90
37702;DHT22;23548;51.196;6.838;2023-02-28T05:57:08;-0.80;99.90
37702;DHT22;23548;51.196;6.838;2023-02-28T05:59:33;-0.90;99.90
37702;DHT22;23548;51.196;6.838;2023-02-28T06:01:59;-0.90;99.90
37702;DHT22;23548;51.196;6.838;2023-02-28T06:04:25;-0.80;99.90
37702;DHT22;23548;51.196;6.838;2023-02-28T06:06:51;-0.80;99.90
37702;DHT22;23548;51.196;6.838;2023-02-28T06:09:17;-0.80;99.90
37702;DHT22;23548;51.196;6.838;2023-02-28T06:11:44;-0.80;99.90
37702;DHT22;23548;51.196;6.838;2023-02-28T06:14:15;-0.80;99.90
37702;DHT22;23548;51.196;6.838;2023-02-28T06:16:42;-0.90;99.90
37702;DHT22;23548;51.196;6.838;2023-02-28T06:19:09;-1.00;99.90
37702;DHT22;23548;51.196;6.838;2023-02-28T06:21:36;-0.90;99.90
37702;DHT22;23548;51.196;6.838;2023-02-28T06:24:02;-0.90;99.90
37702;DHT22;23548;51.196;6.838;2023-02-28T06:26:28;-0.90;99.90
37702;DHT22;23548;51.196;6.838;2023-02-28T06:28:54;-0.80;99.90
37702;DHT22;23548;51.196;6.838;2023-02-28T06:31:20;-0.80;99.90
37702;DHT22;23548;51.196;6.838;2023-02-28T06:33:46;-0.80;99.90
37702;DHT22;23548;51.196;6.838;2023-02-28T06:36:13;-0.70;99.90
37702;DHT22;23548;51.196;6.838;2023-02-28T06:38:41;-0.70;99.90
37702;DHT22;23548;51.196;6.838;2023-02-28T06:41:07;-0.70;99.90
37702;DHT22;23548;51.196;6.838;2023-02-28T06:43:38;-0.60;99.90
37702;DHT22;23548;51.196;6.838;2023-02-28T06:46:07;-0.60;99.90
37702;DHT22;23548;51.196;6.838;2023-02-28T06:48:33;-0.50;99.90
37702;DHT22;23548;51.196;6.838;2023-02-28T06:51:10;-0.50;99.90
37702;DHT22;23548;51.196;6.838;2023-02-28T06:53:36;-0.50;99.90
37702;DHT22;23548;51.196;6.838;2023-02-28T06:56:06;-0.40;99.90
37702;DHT22;23548;51.196;6.838;2023-02-28T06:58:33;-0.40;99.90
37702;DHT22;23548;51.196;6.838;2023-02-28T07:00:59;-0.30;99.90
37702;DHT22;23548;51.196;6.838;2023-02-28T07:03:24;-0.20;99.90
37702;DHT22;23548;51.196;6.838;2023-02-28T07:05:50;-0.20;99.90
37702;DHT22;23548;51.196;6.838;2023-02-28T07:08:16;-0.20;99.90
37702;DHT22;23548;51.196;6.838;2023-02-28T07:10:42;-0.10;99.90
37702;DHT22;23548;51.196;6.838;2023-02-28T07:13:08;0.00;99.90
37702;DHT22;23548;51.196;6.838;2023-02-28T07:15:35;0.00;99.90
37702;DHT22;23548;51.196;6.838;2023-02-28T07:18:01;0.10;99.90
37702;DHT22;23548;51.196;6.838;2023-02-28T07:20:27;0.10;99.90
37702;DHT22;23548;51.196;6.838;2023-02-28T07:22:53;0.20;99.90
37702;DHT22;23548;51.196;6.838;2023-02-28T07:25:26;0.30;99.90
37702;DHT22;23548;51.196;6.838;2023-02-28T07:27:53;0.30;99.90
37702;DHT22;23548;51.196;6.838;2023-02-28T07:30:19;0.40;99.90
37702;DHT22;23548;51.196;6.838;2023-02-28T07:32:45;0.50;99.90
37702;DHT22;23548;51.196;6.838;2023-02-28T07:35:11;0.70;99.90
37702;DHT22;23548;51.196;6.838;2023-02-28T07:37:37;0.70;99.90
37702;DHT22;23548;51.196;6.838;2023-02-28T07:40:06;0.80;99.90
37702;DHT22;23548;51.196;6.838;2023-02-28T07:42:40;0.90;99.90
37702;DHT22;23548;51.196;6.838;2023-02-28T07:45:06;0.90;99.90
37702;DHT22;23548;51.196;6.838;2023-02-28T07:47:33;0.90;99.90
37702;DHT22;23548;51.196;6.838;2023-02-28T07:49:59;1.00;99.90
37702;DHT22;23548;51.196;6.838;2023-02-28T07:52:25;1.10;99.90
37702;DHT22;23548;51.196;6.838;2023-02-28T07:54:51;1.20;99.90
37702;DHT22;23548;51.196;6.838;2023-02-28T07:57:16;1.30;99.90
37702;DHT22;23548;51.196;6.838;2023-02-28T07:59:42;1.30;99.90
37702;DHT22;23548;51.196;6.838;2023-02-28T08:02:16;1.40;99.90
37702;DHT22;23548;51.196;6.838;2023-02-28T08:04:41;1.40;99.90
37702;DHT22;23548;51.196;6.838;2023-02-28T08:07:07;1.50;99.90
37702;DHT22;23548;51.196;6.838;2023-02-28T08:09:35;1.50;99.90
37702;DHT22;23548;51.196;6.838;2023-02-28T08:12:01;1.60;99.90
37702;DHT22;23548;51.196;6.838;2023-02-28T08:14:26;1.60;99.90
37702;DHT22;23548;51.196;6.838;2023-02-28T08:16:52;1.60;99.90
37702;DHT22;23548;51.196;6.838;2023-02-28T08:19:18;1.70;99.90
37702;DHT22;23548;51.196;6.838;2023-02-28T08:21:44;1.80;99.90
37702;DHT22;23548;51.196;6.838;2023-02-28T08:24:10;1.90;99.90
37702;DHT22;23548;51.196;6.838;2023-02-28T08:26:35;2.00;99.90
37702;DHT22;23548;51.196;6.838;2023-02-28T08:29:01;2.00;99.50
37702;DHT22;23548;51.196;6.838;2023-02-28T08:31:27;2.00;98.70
37702;DHT22;23548;51.196;6.838;2023-02-28T08:33:53;2.10;98.00
37702;DHT22;23548;51.196;6.838;2023-02-28T08:36:21;2.20;97.20
37702;DHT22;23548;51.196;6.838;2023-02-28T08:38:46;2.20;97.80
37702;DHT22;23548;51.196;6.838;2023-02-28T08:41:13;2.30;97.60
37702;DHT22;23548;51.196;6.838;2023-02-28T08:43:39;2.40;97.50
37702;DHT22;23548;51.196;6.838;2023-02-28T08:46:06;2.50;95.70
37702;DHT22;23548;51.196;6.838;2023-02-28T08:48:34;2.40;95.90
37702;DHT22;23548;51.196;6.838;2023-02-28T08:51:06;2.60;96.70
37702;DHT22;23548;51.196;6.838;2023-02-28T08:53:33;2.60;95.90
37702;DHT22;23548;51.196;6.838;2023-02-28T08:56:01;2.60;95.80
37702;DHT22;23548;51.196;6.838;2023-02-28T08:58:27;2.70;95.80
37702;DHT22;23548;51.196;6.838;2023-02-28T09:00:53;2.70;95.40
37702;DHT22;23548;51.196;6.838;2023-02-28T09:03:20;2.80;95.00
37702;DHT22;23548;51.196;6.838;2023-02-28T09:06:00;2.80;94.30
37702;DHT22;23548;51.196;6.838;2023-02-28T09:08:27;2.80;94.00
37702;DHT22;23548;51.196;6.838;2023-02-28T09:10:53;2.90;94.20
37702;DHT22;23548;51.196;6.838;2023-02-28T09:13:21;3.00;94.20
37702;DHT22;23548;51.196;6.838;2023-02-28T09:15:47;3.20;93.60
37702;DHT22;23548;51.196;6.838;2023-02-28T09:18:14;3.20;93.90
37702;DHT22;23548;51.196;6.838;2023-02-28T09:20:40;3.80;93.20
37702;DHT22;23548;51.196;6.838;2023-02-28T09:23:07;3.30;92.70
37702;DHT22;23548;51.196;6.838;2023-02-28T09:25:33;3.40;92.50
37702;DHT22;23548;51.196;6.838;2023-02-28T09:28:12;3.60;91.40
37702;DHT22;23548;51.196;6.838;2023-02-28T09:30:42;3.80;91.50
37702;DHT22;23548;51.196;6.838;2023-02-28T09:33:09;3.90;90.30
37702;DHT22;23548;51.196;6.838;2023-02-28T09:35:35;3.80;90.50
37702;DHT22;23548;51.196;6.838;2023-02-28T09:38:02;4.00;90.50
37702;DHT22;23548;51.196;6.838;2023-02-28T09:40:29;3.80;91.10
37702;DHT22;23548;51.196;6.838;2023-02-28T09:42:57;3.90;90.20
37702;DHT22;23548;51.196;6.838;2023-02-28T09:45:34;3.90;90.50
37702;DHT22;23548;51.196;6.838;2023-02-28T09:48:10;3.90;90.80
37702;DHT22;23548;51.196;6.838;2023-02-28T09:50:55;3.70;90.40
37702;DHT22;23548;51.196;6.838;2023-02-28T09:53:28;3.80;90.60
37702;DHT22;23548;51.196;6.838;2023-02-28T09:56:11;3.90;90.10
37702;DHT22;23548;51.196;6.838;2023-02-28T09:58:47;3.80;90.80
37702;DHT22;23548;51.196;6.838;2023-02-28T10:01:30;3.90;90.20
37702;DHT22;23548;51.196;6.838;2023-02-28T10:06:53;4.40;90.60
37702;DHT22;23548;51.196;6.838;2023-02-28T10:09:24;4.90;89.60
37702;DHT22;23548;51.196;6.838;2023-02-28T10:11:55;4.70;88.00
37702;DHT22;23548;51.196;6.838;2023-02-28T10:14:25;4.30;86.90
37702;DHT22;23548;51.196;6.838;2023-02-28T10:17:04;4.50;87.50
37702;DHT22;23548;51.196;6.838;2023-02-28T10:25:25;4.40;86.70
37702;DHT22;23548;51.196;6.838;2023-02-28T10:28:00;4.60;87.10
37702;DHT22;23548;51.196;6.838;2023-02-28T10:30:26;4.80;85.50
37702;DHT22;23548;51.196;6.838;2023-02-28T10:32:53;5.10;87.30
37702;DHT22;23548;51.196;6.838;2023-02-28T10:35:22;5.10;85.10
37702;DHT22;23548;51.196;6.838;2023-02-28T10:37:53;4.90;85.00
37702;DHT22;23548;51.196;6.838;2023-02-28T10:45:51;4.80;85.10
37702;DHT22;23548;51.196;6.838;2023-02-28T10:56:14;4.60;86.10
37702;DHT22;23548;51.196;6.838;2023-02-28T10:59:02;4.90;86.10
37702;DHT22;23548;51.196;6.838;2023-02-28T11:03:58;4.60;87.50
37702;DHT22;23548;51.196;6.838;2023-02-28T11:06:29;4.60;87.80
37702;DHT22;23548;51.196;6.838;2023-02-28T11:08:58;4.80;87.60
37702;DHT22;23548;51.196;6.838;2023-02-28T11:11:27;4.80;86.40
37702;DHT22;23548;51.196;6.838;2023-02-28T11:14:03;5.10;87.80
37702;DHT22;23548;51.196;6.838;2023-02-28T11:16:35;5.00;87.10
37702;DHT22;23548;51.196;6.838;2023-02-28T11:19:04;4.60;86.60
37702;DHT22;23548;51.196;6.838;2023-02-28T11:21:36;4.90;89.60
37702;DHT22;23548;51.196;6.838;2023-02-28T11:24:27;5.10;87.00
37702;DHT22;23548;51.196;6.838;2023-02-28T11:26:55;4.60;86.80
37702;DHT22;23548;51.196;6.838;2023-02-28T11:29:32;4.70;86.00
37702;DHT22;23548;51.196;6.838;2023-02-28T11:34:35;4.80;87.50
37702;DHT22;23548;51.196;6.838;2023-02-28T11:37:02;4.80;85.80
37702;DHT22;23548;51.196;6.838;2023-02-28T11:39:32;4.70;84.60
37702;DHT22;23548;51.196;6.838;2023-02-28T11:56:26;4.10;86.00
37702;DHT22;23548;51.196;6.838;2023-02-28T12:07:37;4.90;83.90
37702;DHT22;23548;51.196;6.838;2023-02-28T12:13:18;4.80;83.20
37702;DHT22;23548;51.196;6.838;2023-02-28T12:27:31;5.30;84.20
37702;DHT22;23548;51.196;6.838;2023-02-28T12:30:28;5.40;86.50
37702;DHT22;23548;51.196;6.838;2023-02-28T12:33:09;5.10;84.90
37702;DHT22;23548;51.196;6.838;2023-02-28T12:36:05;5.30;85.60
37702;DHT22;23548;51.196;6.838;2023-02-28T12:38:48;5.40;85.60
37702;DHT22;23548;51.196;6.838;2023-02-28T12:41:19;5.70;84.80
37702;DHT22;23548;51.196;6.838;2023-02-28T12:44:12;5.90;84.70
37702;DHT22;23548;51.196;6.838;2023-02-28T12:46:43;6.00;83.90
37702;DHT22;23548;51.196;6.838;2023-02-28T12:49:14;5.90;82.90
37702;DHT22;23548;51.196;6.838;2023-02-28T12:51:43;5.90;85.10
37702;DHT22;23548;51.196;6.838;2023-02-28T12:54:24;5.90;84.00
37702;DHT22;23548;51.196;6.838;2023-02-28T12:57:04;6.10;83.80
37702;DHT22;23548;51.196;6.838;2023-02-28T13:10:53;5.80;83.30
37702;DHT22;23548;51.196;6.838;2023-02-28T13:13:24;5.70;82.50
37702;DHT22;23548;51.196;6.838;2023-02-28T13:16:06;6.00;83.40
37702;DHT22;23548;51.196;6.838;2023-02-28T13:18:38;5.90;80.10
37702;DHT22;23548;51.196;6.838;2023-02-28T13:21:07;5.80;81.60
37702;DHT22;23548;51.196;6.838;2023-02-28T13:34:41;5.90;81.10
37702;DHT22;23548;51.196;6.838;2023-02-28T13:39:52;6.00;83.00
37702;DHT22;23548;51.196;6.838;2023-02-28T13:48:34;5.90;81.50
37702;DHT22;23548;51.196;6.838;2023-02-28T13:50:41;5.80;81.70
37702;DHT22;23548;51.196;6.838;2023-02-28T13:56:23;6.00;83.50
37702;DHT22;23548;51.196;6.838;2023-02-28T13:59:23;6.20;82.30
37702;DHT22;23548;51.196;6.838;2023-02-28T14:01:57;6.20;82.20
37702;DHT22;23548;51.196;6.838;2023-02-28T14:07:28;6.40;82.90
37702;DHT22;23548;51.196;6.838;2023-02-28T14:10:04;6.40;82.10
37702;DHT22;23548;51.196;6.838;2023-02-28T14:12:57;6.30;83.00
37702;DHT22;23548;51.196;6.838;2023-02-28T14:17:55;6.20;82.90
37702;DHT22;23548;51.196;6.838;2023-02-28T14:20:23;6.40;83.00
37702;DHT22;23548;51.196;6.838;2023-02-28T14:25:33;7.00;82.20
37702;DHT22;23548;51.196;6.838;2023-02-28T14:28:17;8.80;79.60
37702;DHT22;23548;51.196;6.838;2023-02-28T14:38:25;10.30;73.00
37702;DHT22;23548;51.196;6.838;2023-02-28T14:40:55;10.70;70.20
37702;DHT22;23548;51.196;6.838;2023-02-28T14:43:24;10.70;70.40
37702;DHT22;23548;51.196;6.838;2023-02-28T14:45:53;10.40;72.30
37702;DHT22;23548;51.196;6.838;2023-02-28T14:48:21;10.80;69.80
37702;DHT22;23548;51.196;6.838;2023-02-28T14:50:59;11.00;68.40
37702;DHT22;23548;51.196;6.838;2023-02-28T14:53:30;11.20;69.10
37702;DHT22;23548;51.196;6.838;2023-02-28T14:56:00;11.30;67.90
37702;DHT22;23548;51.196;6.838;2023-02-28T14:58:28;11.20;67.80
37702;DHT22;23548;51.196;6.838;2023-02-28T15:00:59;11.10;68.00
37702;DHT22;23548;51.196;6.838;2023-02-28T15:03:33;11.10;67.60
37702;DHT22;23548;51.196;6.838;2023-02-28T15:06:00;11.50;66.40
37702;DHT22;23548;51.196;6.838;2023-02-28T15:08:28;11.80;65.70
37702;DHT22;23548;51.196;6.838;2023-02-28T15:11:17;13.00;63.60
37702;DHT22;23548;51.196;6.838;2023-02-28T15:13:56;13.80;61.10
37702;DHT22;23548;51.196;6.838;2023-02-28T15:16:28;12.40;60.30
37702;DHT22;23548;51.196;6.838;2023-02-28T15:19:00;10.90;64.00
37702;DHT22;23548;51.196;6.838;2023-02-28T15:21:34;11.20;66.00
37702;DHT22;23548;51.196;6.838;2023-02-28T15:24:17;10.80;64.90
37702;DHT22;23548;51.196;6.838;2023-02-28T15:26:54;10.90;64.20
37702;DHT22;23548;51.196;6.838;2023-02-28T15:29:24;11.10;65.40
37702;DHT22;23548;51.196;6.838;2023-02-28T15:31:55;10.70;64.80
37702;DHT22;23548;51.196;6.838;2023-02-28T15:34:37;10.60;65.90
37702;DHT22;23548;51.196;6.838;2023-02-28T15:39:50;8.80;69.10
37702;DHT22;23548;51.196;6.838;2023-02-28T15:42:22;7.60;72.20
37702;DHT22;23548;51.196;6.838;2023-02-28T15:44:52;7.00;73.60
37702;DHT22;23548;51.196;6.838;2023-02-28T15:47:24;6.60;75.70
37702;DHT22;23548;51.196;6.838;2023-02-28T15:50:03;6.40;76.80
37702;DHT22;23548;51.196;6.838;2023-02-28T15:55:22;6.10;78.40
37702;DHT22;23548;51.196;6.838;2023-02-28T15:57:55;6.00;79.70
37702;DHT22;23548;51.196;6.838;2023-02-28T16:00:26;6.00;80.20
37702;DHT22;23548;51.196;6.838;2023-02-28T16:02:52;6.00;80.50
37702;DHT22;23548;51.196;6.838;2023-02-28T16:05:29;6.00;80.90
37702;DHT22;23548;51.196;6.838;2023-02-28T16:08:13;5.90;81.40
37702;DHT22;23548;51.196;6.838;2023-02-28T16:10:39;5.90;81.50
37702;DHT22;23548;51.196;6.838;2023-02-28T16:13:05;5.80;81.60
37702;DHT22;23548;51.196;6.838;2023-02-28T16:15:36;5.70;83.30
37702;DHT22;23548;51.196;6.838;2023-02-28T16:18:08;5.70;83.00
37702;DHT22;23548;51.196;6.838;2023-02-28T16:20:36;5.70;83.30
37702;DHT22;23548;51.196;6.838;2023-02-28T16:23:02;5.60;84.80
37702;DHT22;23548;51.196;6.838;2023-02-28T16:25:39;5.60;84.10
37702;DHT22;23548;51.196;6.838;2023-02-28T16:28:18;5.50;84.70
37702;DHT22;23548;51.196;6.838;2023-02-28T16:30:45;5.50;85.80
37702;DHT22;23548;51.196;6.838;2023-02-28T16:33:11;5.40;86.40
37702;DHT22;23548;51.196;6.838;2023-02-28T16:35:37;5.40;86.30
37702;DHT22;23548;51.196;6.838;2023-02-28T16:38:03;5.30;86.30
37702;DHT22;23548;51.196;6.838;2023-02-28T16:40:33;5.30;86.80
37702;DHT22;23548;51.196;6.838;2023-02-28T16:43:00;5.30;87.30
37702;DHT22;23548;51.196;6.838;2023-02-28T16:45:29;5.20;88.00
37702;DHT22;23548;51.196;6.838;2023-02-28T16:47:55;5.20;88.30
37702;DHT22;23548;51.196;6.838;2023-02-28T16:50:24;5.10;88.60
37702;DHT22;23548;51.196;6.838;2023-02-28T16:52:50;5.10;88.90
37702;DHT22;23548;51.196;6.838;2023-02-28T16:55:18;5.00;89.50
37702;DHT22;23548;51.196;6.838;2023-02-28T16:57:53;4.90;90.00
37702;DHT22;23548;51.196;6.838;2023-02-28T17:00:20;4.80;90.30
37702;DHT22;23548;51.196;6.838;2023-02-28T17:02:46;4.70;89.80
37702;DHT22;23548;51.196;6.838;2023-02-28T17:05:12;4.70;90.10
37702;DHT22;23548;51.196;6.838;2023-02-28T17:07:39;4.70;90.30
37702;DHT22;23548;51.196;6.838;2023-02-28T17:10:15;4.60;90.60
37702;DHT22;23548;51.196;6.838;2023-02-28T17:12:41;4.50;90.80
37702;DHT22;23548;51.196;6.838;2023-02-28T17:15:09;4.40;90.90
37702;DHT22;23548;51.196;6.838;2023-02-28T17:17:36;4.30;91.00
37702;DHT22;23548;51.196;6.838;2023-02-28T17:20:02;4.30;90.90
37702;DHT22;23548;51.196;6.838;2023-02-28T17:22:28;4.30;91.00
37702;DHT22;23548;51.196;6.838;2023-02-28T17:24:54;4.30;91.00
37702;DHT22;23548;51.196;6.838;2023-02-28T17:27:21;4.20;91.10
37702;DHT22;23548;51.196;6.838;2023-02-28T17:29:47;4.30;91.20
37702;DHT22;23548;51.196;6.838;2023-02-28T17:32:13;4.30;91.20
37702;DHT22;23548;51.196;6.838;2023-02-28T17:34:39;4.30;91.30
37702;DHT22;23548;51.196;6.838;2023-02-28T17:37:05;4.20;91.40
37702;DHT22;23548;51.196;6.838;2023-02-28T17:39:31;4.20;91.40
37702;DHT22;23548;51.196;6.838;2023-02-28T17:41:57;4.10;91.70
37702;DHT22;23548;51.196;6.838;2023-02-28T17:44:23;4.00;91.90
37702;DHT22;23548;51.196;6.838;2023-02-28T17:46:50;3.90;92.30
37702;DHT22;23548;51.196;6.838;2023-02-28T17:49:17;3.80;92.30
37702;DHT22;23548;51.196;6.838;2023-02-28T17:51:43;3.80;92.30
37702;DHT22;23548;51.196;6.838;2023-02-28T17:54:08;3.80;92.50
37702;DHT22;23548;51.196;6.838;2023-02-28T17:56:35;3.70;92.80
37702;DHT22;23548;51.196;6.838;2023-02-28T17:59:01;3.60;92.90
37702;DHT22;23548;51.196;6.838;2023-02-28T18:01:27;3.60;93.20
37702;DHT22;23548;51.196;6.838;2023-02-28T18:03:54;3.60;93.20
37702;DHT22;23548;51.196;6.838;2023-02-28T18:06:25;3.60;93.20
37702;DHT22;23548;51.196;6.838;2023-02-28T18:08:53;3.60;93.30
37702;DHT22;23548;51.196;6.838;2023-02-28T18:11:21;3.60;93.60
37702;DHT22;23548;51.196;6.838;2023-02-28T18:13:49;3.60;93.50
37702;DHT22;23548;51.196;6.838;2023-02-28T18:16:17;3.60;93.60
37702;DHT22;23548;51.196;6.838;2023-02-28T18:18:43;3.60;93.70
37702;DHT22;23548;51.196;6.838;2023-02-28T18:21:11;3.50;93.80
37702;DHT22;23548;51.196;6.838;2023-02-28T18:23:37;3.50;93.90
37702;DHT22;23548;51.196;6.838;2023-02-28T18:26:10;3.50;94.30
37702;DHT22;23548;51.196;6.838;2023-02-28T18:28:35;3.50;94.20
37702;DHT22;23548;51.196;6.838;2023-02-28T18:31:06;3.50;94.10
37702;DHT22;23548;51.196;6.838;2023-02-28T18:33:33;3.40;94.40
37702;DHT22;23548;51.196;6.838;2023-02-28T18:35:58;3.30;94.50
37702;DHT22;23548;51.196;6.838;2023-02-28T18:38:24;3.30;94.70
37702;DHT22;23548;51.196;6.838;2023-02-28T18:40:58;3.20;94.90
37702;DHT22;23548;51.196;6.838;2023-02-28T18:43:26;3.20;94.90
37702;DHT22;23548;51.196;6.838;2023-02-28T18:45:52;3.20;95.00
37702;DHT22;23548;51.196;6.838;2023-02-28T18:48:18;3.10;95.20
37702;DHT22;23548;51.196;6.838;2023-02-28T18:50:45;3.10;95.40